createdAt,value
2023-05-17T00:00:01.749Z,87.60
2023-05-17T00:02:28.760Z,88.30
2023-05-17T00:04:56.298Z,88.50
2023-05-17T00:07:23.432Z,88.50
2023-05-17T00:09:50.392Z,89.10
2023-05-17T00:12:17.381Z,89.50
2023-05-17T00:14:44.360Z,89.10
2023-05-17T00:17:11.524Z,88.70
2023-05-17T00:19:38.536Z,88.70
2023-05-17T00:22:05.631Z,88.70
2023-05-17T00:24:32.574Z,89.40
2023-05-17T00:26:59.550Z,89.40
2023-05-17T00:29:26.503Z,89.50
2023-05-17T00:31:53.573Z,90.00
2023-05-17T00:34:20.635Z,89.80
2023-05-17T00:36:47.594Z,90.10
2023-05-17T00:39:14.782Z,89.60
2023-05-17T00:41:42.217Z,90.20
2023-05-17T00:44:09.247Z,90.30
2023-05-17T00:46:36.425Z,91.40
2023-05-17T00:49:03.841Z,91.20
2023-05-17T00:51:31.716Z,90.80
2023-05-17T00:53:59.183Z,91.10
2023-05-17T00:56:26.168Z,90.90
2023-05-17T00:58:54.738Z,91.20
2023-05-17T01:01:22.738Z,91.20
2023-05-17T01:03:49.944Z,92.10
2023-05-17T01:06:17.170Z,91.70
2023-05-17T01:08:44.630Z,92.00
2023-05-17T01:11:12.992Z,92.50
2023-05-17T01:13:58.547Z,92.90
2023-05-17T01:16:36.992Z,93.20
2023-05-17T01:19:25.874Z,92.80
2023-05-17T01:22:29.615Z,92.50
2023-05-17T01:25:16.274Z,93.10
2023-05-17T01:27:45.632Z,93.20
2023-05-17T01:30:13.904Z,93.30
2023-05-17T01:32:44.778Z,93.80
2023-05-17T01:35:12.762Z,93.30
2023-05-17T01:37:40.054Z,93.40
2023-05-17T01:40:09.063Z,93.10
2023-05-17T01:42:42.830Z,94.00
2023-05-17T01:45:25.079Z,93.80
2023-05-17T01:48:23.466Z,93.70
2023-05-17T01:50:54.629Z,94.00
2023-05-17T01:53:33.191Z,93.20
2023-05-17T01:56:13.571Z,93.20
2023-05-17T01:58:47.615Z,93.70
2023-05-17T02:01:19.716Z,93.60
2023-05-17T02:03:50.820Z,93.70
2023-05-17T02:06:18.145Z,93.80
2023-05-17T02:08:45.375Z,94.00
2023-05-17T02:11:13.137Z,93.90
2023-05-17T02:13:40.641Z,93.70
2023-05-17T02:16:08.149Z,94.00
2023-05-17T02:18:37.902Z,94.10
2023-05-17T02:21:05.425Z,94.00
2023-05-17T02:23:32.507Z,94.00
2023-05-17T02:25:59.522Z,93.80
2023-05-17T02:28:27.843Z,93.90
2023-05-17T02:30:56.610Z,93.90
2023-05-17T02:33:23.978Z,93.60
2023-05-17T02:35:51.288Z,93.60
2023-05-17T02:38:19.852Z,93.40
2023-05-17T02:40:46.859Z,93.40
2023-05-17T02:43:13.898Z,93.70
2023-05-17T02:45:40.910Z,94.00
2023-05-17T02:48:07.998Z,94.00
2023-05-17T02:50:35.121Z,94.10
2023-05-17T02:53:02.194Z,94.10
2023-05-17T02:55:29.528Z,94.10
2023-05-17T02:57:56.812Z,93.70
2023-05-17T03:00:24.877Z,93.50
2023-05-17T03:02:52.390Z,93.60
2023-05-17T03:05:19.449Z,93.80
2023-05-17T03:07:49.882Z,93.80
2023-05-17T03:10:17.098Z,94.00
2023-05-17T03:12:46.047Z,94.00
2023-05-17T03:15:14.530Z,94.00
2023-05-17T03:17:41.610Z,94.40
2023-05-17T03:20:10.135Z,94.40
2023-05-17T03:22:37.215Z,95.00
2023-05-17T03:25:05.946Z,94.80
2023-05-17T03:27:33.928Z,95.00
2023-05-17T03:30:01.998Z,94.70
2023-05-17T03:32:30.856Z,94.90
2023-05-17T03:34:58.362Z,94.80
2023-05-17T03:37:26.699Z,94.70
2023-05-17T03:39:53.711Z,94.70
2023-05-17T03:42:20.914Z,94.90
2023-05-17T03:44:48.724Z,95.30
2023-05-17T03:47:16.038Z,95.50
2023-05-17T03:49:43.929Z,95.60
2023-05-17T03:52:11.619Z,95.50
2023-05-17T03:54:38.971Z,95.80
2023-05-17T03:57:06.197Z,96.50
2023-05-17T03:59:33.255Z,96.70
2023-05-17T04:02:00.539Z,97.10
2023-05-17T04:04:27.786Z,97.50
2023-05-17T04:06:54.886Z,97.90
2023-05-17T04:09:21.897Z,98.50
2023-05-17T04:11:48.898Z,98.90
2023-05-17T04:14:17.651Z,99.10
2023-05-17T04:16:45.221Z,99.20
2023-05-17T04:19:12.380Z,99.30
2023-05-17T04:21:40.134Z,99.20
2023-05-17T04:24:07.880Z,99.50
2023-05-17T04:26:34.982Z,99.80
2023-05-17T04:29:02.005Z,99.80
2023-05-17T04:31:29.091Z,99.80
2023-05-17T04:33:56.295Z,99.90
2023-05-17T04:36:23.721Z,100.00
2023-05-17T04:38:51.370Z,100.00
2023-05-17T04:41:23.211Z,99.90
2023-05-17T04:43:50.269Z,99.50
2023-05-17T04:46:24.453Z,99.70
2023-05-17T04:48:51.623Z,99.80
2023-05-17T04:51:18.745Z,99.60
2023-05-17T04:53:45.938Z,100.00
2023-05-17T04:56:16.949Z,99.20
2023-05-17T04:58:45.376Z,99.10
2023-05-17T05:01:13.077Z,99.10
2023-05-17T05:03:40.480Z,99.20
2023-05-17T05:06:09.057Z,99.10
2023-05-17T05:08:37.671Z,99.30
2023-05-17T05:11:07.160Z,99.40
2023-05-17T05:13:34.323Z,99.20
2023-05-17T05:16:01.386Z,99.10
2023-05-17T05:18:32.473Z,99.30
2023-05-17T05:21:00.266Z,99.20
2023-05-17T05:23:27.372Z,99.30
2023-05-17T05:25:54.821Z,99.30
2023-05-17T05:28:21.870Z,99.10
2023-05-17T05:30:49.203Z,99.30
2023-05-17T05:33:16.631Z,98.80
2023-05-17T05:35:43.837Z,98.60
2023-05-17T05:38:10.918Z,98.50
2023-05-17T05:41:48.140Z,98.50
2023-05-17T05:44:15.291Z,98.30
2023-05-17T05:46:42.432Z,98.10
2023-05-17T05:49:09.554Z,97.80
2023-05-17T05:51:37.626Z,97.40
2023-05-17T05:54:04.669Z,97.50
2023-05-17T05:56:31.739Z,97.60
2023-05-17T05:58:58.853Z,97.70
2023-05-17T06:01:26.715Z,97.20
2023-05-17T06:03:53.734Z,97.20
2023-05-17T06:06:20.888Z,97.30
2023-05-17T06:08:48.008Z,97.30
2023-05-17T06:11:15.115Z,97.30
2023-05-17T06:13:42.239Z,97.00
2023-05-17T06:16:09.267Z,96.70
2023-05-17T06:18:36.375Z,96.60
2023-05-17T06:21:03.625Z,96.90
2023-05-17T06:23:30.714Z,97.60
2023-05-17T06:25:57.750Z,96.50
2023-05-17T06:28:24.800Z,96.50
2023-05-17T06:30:51.847Z,96.80
2023-05-17T06:33:19.088Z,97.10
2023-05-17T06:35:56.007Z,96.90
2023-05-17T06:38:24.867Z,97.10
2023-05-17T06:40:54.174Z,96.80
2023-05-17T06:43:21.365Z,96.40
2023-05-17T06:45:48.484Z,96.30
2023-05-17T06:48:16.027Z,94.50
2023-05-17T06:50:43.257Z,94.10
2023-05-17T06:53:10.329Z,95.00
2023-05-17T06:55:37.690Z,95.60
2023-05-17T06:58:04.872Z,94.00
2023-05-17T07:00:32.448Z,92.80
2023-05-17T07:03:00.191Z,93.00
2023-05-17T07:05:29.508Z,93.90
2023-05-17T07:07:58.660Z,93.60
2023-05-17T07:10:25.929Z,93.10
2023-05-17T07:12:53.617Z,90.70
2023-05-17T07:15:20.743Z,90.70
2023-05-17T07:17:47.853Z,90.10
2023-05-17T07:20:15.119Z,90.20
2023-05-17T07:22:42.279Z,89.20
2023-05-17T07:25:10.111Z,88.90
2023-05-17T07:27:37.280Z,88.20
2023-05-17T07:30:04.878Z,89.10
2023-05-17T07:32:31.993Z,88.90
2023-05-17T07:34:59.045Z,89.30
2023-05-17T07:37:26.135Z,89.50
2023-05-17T07:39:53.298Z,88.00
2023-05-17T07:42:20.316Z,88.80
2023-05-17T07:44:48.802Z,88.10
2023-05-17T07:47:16.509Z,87.20
2023-05-17T07:49:43.689Z,87.20
2023-05-17T07:52:10.756Z,85.80
2023-05-17T07:54:37.945Z,85.80
2023-05-17T07:57:05.001Z,87.30
2023-05-17T07:59:32.108Z,86.40
2023-05-17T08:01:59.103Z,87.10
2023-05-17T08:04:26.390Z,87.00
2023-05-17T08:06:54.572Z,86.60
2023-05-17T08:09:21.686Z,85.30
2023-05-17T08:11:48.776Z,84.50
2023-05-17T08:14:16.807Z,83.60
2023-05-17T08:16:45.498Z,83.30
2023-05-17T08:19:14.946Z,83.60
2023-05-17T08:21:43.236Z,82.70
2023-05-17T08:24:10.448Z,82.00
2023-05-17T08:26:37.735Z,83.30
2023-05-17T08:29:05.168Z,84.40
2023-05-17T08:31:33.012Z,83.30
2023-05-17T08:34:00.183Z,83.50
2023-05-17T08:36:28.558Z,83.70
2023-05-17T08:38:55.623Z,82.90
2023-05-17T08:41:22.943Z,81.50
2023-05-17T08:43:51.158Z,80.80
2023-05-17T08:46:22.030Z,81.50
2023-05-17T08:49:00.234Z,82.10
2023-05-17T08:51:28.007Z,83.30
2023-05-17T08:53:55.788Z,81.50
2023-05-17T08:56:25.935Z,81.80
2023-05-17T08:58:57.938Z,79.90
2023-05-17T09:01:26.791Z,78.40
2023-05-17T09:03:54.925Z,77.60
2023-05-17T09:06:23.688Z,78.00
2023-05-17T09:08:53.007Z,77.70
2023-05-17T09:11:27.023Z,80.10
2023-05-17T09:13:54.175Z,79.50
2023-05-17T09:16:24.166Z,77.70
2023-05-17T09:18:55.804Z,78.70
2023-05-17T09:21:23.974Z,76.10
2023-05-17T09:24:05.665Z,75.90
2023-05-17T09:26:42.811Z,76.10
2023-05-17T09:29:11.892Z,76.30
2023-05-17T09:31:40.268Z,75.40
2023-05-17T09:34:08.551Z,77.90
2023-05-17T09:36:38.602Z,76.70
2023-05-17T09:39:06.826Z,75.40
2023-05-17T09:41:42.404Z,76.90
2023-05-17T09:44:10.570Z,76.40
2023-05-17T09:46:48.911Z,77.20
2023-05-17T09:49:18.059Z,78.80
2023-05-17T09:51:47.752Z,77.30
2023-05-17T09:54:14.980Z,77.90
2023-05-17T09:56:42.186Z,79.10
2023-05-17T09:59:14.804Z,77.80
2023-05-17T10:01:45.449Z,78.10
2023-05-17T10:04:13.741Z,78.40
2023-05-17T10:09:15.926Z,78.20
2023-05-17T10:11:47.583Z,77.70
2023-05-17T10:14:27.645Z,78.10
2023-05-17T10:16:56.440Z,78.40
2023-05-17T10:19:24.885Z,78.30
2023-05-17T10:21:53.942Z,76.30
2023-05-17T10:24:24.280Z,77.50
2023-05-17T10:26:52.109Z,76.80
2023-05-17T10:29:21.357Z,77.50
2023-05-17T10:31:51.337Z,77.50
2023-05-17T10:34:20.132Z,78.30
2023-05-17T10:36:49.970Z,79.30
2023-05-17T10:39:16.984Z,79.90
2023-05-17T10:41:46.691Z,80.10
2023-05-17T10:44:14.795Z,80.10
2023-05-17T10:46:52.670Z,80.40
2023-05-17T10:49:24.146Z,80.50
2023-05-17T10:51:52.202Z,80.00
2023-05-17T10:54:19.505Z,79.40
2023-05-17T10:56:52.145Z,78.30
2023-05-17T10:59:23.228Z,77.70
2023-05-17T11:02:27.438Z,78.10
2023-05-17T11:04:56.736Z,77.80
2023-05-17T11:07:27.506Z,76.60
2023-05-17T11:10:08.108Z,77.20
2023-05-17T11:12:44.688Z,77.60
2023-05-17T11:15:18.435Z,77.30
2023-05-17T11:17:54.775Z,77.70
2023-05-17T11:20:28.357Z,76.60
2023-05-17T11:23:05.046Z,76.60
2023-05-17T11:25:40.862Z,78.10
2023-05-17T11:28:28.231Z,78.90
2023-05-17T11:31:01.246Z,79.50
2023-05-17T11:33:45.843Z,79.40
2023-05-17T11:36:20.655Z,80.30
2023-05-17T11:39:10.144Z,80.00
2023-05-17T11:41:48.060Z,79.70
2023-05-17T11:44:16.743Z,80.30
2023-05-17T11:46:44.937Z,80.30
2023-05-17T11:49:15.567Z,80.50
2023-05-17T11:51:50.762Z,80.10
2023-05-17T11:54:19.035Z,80.60
2023-05-17T11:56:46.331Z,79.10
2023-05-17T11:59:22.504Z,78.40
2023-05-17T12:01:51.175Z,78.30
2023-05-17T12:04:26.106Z,78.40
2023-05-17T12:06:56.623Z,78.70
2023-05-17T12:09:24.544Z,77.00
2023-05-17T12:12:04.799Z,77.60
2023-05-17T12:14:32.111Z,76.80
2023-05-17T12:17:30.305Z,77.60
2023-05-17T12:20:07.535Z,77.90
2023-05-17T12:22:34.744Z,77.60
2023-05-17T12:25:31.138Z,78.10
2023-05-17T12:28:22.238Z,78.10
2023-05-17T12:30:54.089Z,77.70
2023-05-17T12:33:21.437Z,78.50
2023-05-17T12:35:48.686Z,77.70
2023-05-17T12:38:16.057Z,79.20
2023-05-17T12:40:43.621Z,78.00
2023-05-17T12:43:11.005Z,78.50
2023-05-17T12:45:41.202Z,77.80
2023-05-17T12:48:08.351Z,77.70
2023-05-17T12:50:35.542Z,77.40
2023-05-17T12:53:09.098Z,76.60
2023-05-17T12:55:39.251Z,74.80
2023-05-17T12:58:06.464Z,73.50
2023-05-17T13:00:33.908Z,74.00
2023-05-17T13:03:01.497Z,74.70
2023-05-17T13:05:28.693Z,73.90
2023-05-17T13:07:55.793Z,73.00
2023-05-17T13:10:26.330Z,73.60
2023-05-17T13:13:00.530Z,73.40
2023-05-17T13:15:32.278Z,74.20
2023-05-17T13:18:00.728Z,74.10
2023-05-17T13:20:28.389Z,72.90
2023-05-17T13:22:55.802Z,72.30
2023-05-17T13:25:22.934Z,74.50
2023-05-17T13:27:49.972Z,73.60
2023-05-17T13:30:17.747Z,71.30
2023-05-17T13:32:45.349Z,71.60
2023-05-17T13:35:12.516Z,73.30
2023-05-17T13:37:40.021Z,72.30
2023-05-17T13:40:08.489Z,74.40
2023-05-17T13:42:37.506Z,75.00
2023-05-17T13:45:05.323Z,74.80
2023-05-17T13:47:32.864Z,73.70
2023-05-17T13:50:04.084Z,72.60
2023-05-17T13:52:31.585Z,73.90
2023-05-17T13:54:58.625Z,73.30
2023-05-17T13:57:34.501Z,73.20
2023-05-17T14:00:01.522Z,73.40
2023-05-17T14:02:28.667Z,73.80
2023-05-17T14:04:55.753Z,72.90
2023-05-17T14:07:23.608Z,72.50
2023-05-17T14:09:50.717Z,73.10
2023-05-17T14:12:17.780Z,73.50
2023-05-17T14:14:44.816Z,73.20
2023-05-17T14:17:12.588Z,75.60
2023-05-17T14:19:39.771Z,73.50
2023-05-17T14:22:08.922Z,71.30
2023-05-17T14:24:36.426Z,70.10
2023-05-17T14:27:03.819Z,72.90
2023-05-17T14:29:32.023Z,70.80
2023-05-17T14:31:59.091Z,69.50
2023-05-17T14:34:26.164Z,67.90
2023-05-17T14:36:53.716Z,68.30
2023-05-17T14:39:21.086Z,69.00
2023-05-17T14:41:48.134Z,69.60
2023-05-17T14:44:15.288Z,70.90
2023-05-17T14:50:39.959Z,70.60
2023-05-17T14:53:07.229Z,70.20
2023-05-17T14:55:34.308Z,71.50
2023-05-17T14:58:02.678Z,71.80
2023-05-17T15:00:30.044Z,73.40
2023-05-17T15:02:57.223Z,72.40
2023-05-17T15:05:24.581Z,72.70
2023-05-17T15:07:51.873Z,72.10
2023-05-17T15:10:18.968Z,71.30
2023-05-17T15:12:46.044Z,71.30
2023-05-17T15:15:13.321Z,70.70
2023-05-17T15:17:40.407Z,71.00
2023-05-17T15:20:10.797Z,69.70
2023-05-17T15:22:37.938Z,66.90
2023-05-17T15:25:05.978Z,66.40
2023-05-17T15:27:33.030Z,66.00
2023-05-17T15:30:00.244Z,67.90
2023-05-17T15:32:27.303Z,68.50
2023-05-17T15:34:54.319Z,68.40
2023-05-17T15:37:21.608Z,68.00
2023-05-17T15:44:09.153Z,66.30
2023-05-17T15:46:36.557Z,65.10
2023-05-17T15:49:03.727Z,67.00
2023-05-17T15:51:31.018Z,67.00
2023-05-17T15:53:58.214Z,67.20
2023-05-17T15:56:25.948Z,65.70
2023-05-17T15:59:23.648Z,67.50
2023-05-17T16:02:09.485Z,69.10
2023-05-17T16:04:36.653Z,68.50
2023-05-17T16:07:04.082Z,68.40
2023-05-17T16:09:57.763Z,67.40
2023-05-17T16:12:32.857Z,65.60
2023-05-17T16:14:59.889Z,64.60
2023-05-17T16:17:27.394Z,65.60
2023-05-17T16:19:54.578Z,66.10
2023-05-17T16:22:21.749Z,66.60
2023-05-17T16:24:53.753Z,65.00
2023-05-17T16:27:20.764Z,65.20
2023-05-17T16:29:47.902Z,64.50
2023-05-17T16:32:15.642Z,63.70
2023-05-17T16:34:42.829Z,65.30
2023-05-17T16:37:09.898Z,66.00
2023-05-17T16:39:37.156Z,67.40
2023-05-17T16:42:04.420Z,67.10
2023-05-17T16:44:31.540Z,66.00
2023-05-17T16:46:58.810Z,66.90
2023-05-17T16:49:26.484Z,65.80
2023-05-17T16:51:53.576Z,64.30
2023-05-17T16:54:20.794Z,65.60
2023-05-17T16:56:47.877Z,65.00
2023-05-17T16:59:15.881Z,65.50
2023-05-17T17:01:43.253Z,66.30
2023-05-17T17:04:10.727Z,64.00
2023-05-17T17:06:38.252Z,64.50
2023-05-17T17:09:08.350Z,65.00
2023-05-17T17:11:35.953Z,65.10
2023-05-17T17:14:03.016Z,64.30
2023-05-17T17:16:31.379Z,65.10
2023-05-17T17:18:59.032Z,64.20
2023-05-17T17:21:26.264Z,65.20
2023-05-17T17:23:53.706Z,64.90
2023-05-17T17:26:21.117Z,66.70
2023-05-17T17:28:48.209Z,66.80
2023-05-17T17:31:15.278Z,67.00
2023-05-17T17:33:42.314Z,67.10
2023-05-17T17:36:11.309Z,68.20
2023-05-17T17:38:38.404Z,67.80
2023-05-17T17:41:05.689Z,68.20
2023-05-17T17:43:32.726Z,69.60
2023-05-17T17:45:59.758Z,69.60
2023-05-17T17:48:26.806Z,70.40
2023-05-17T17:50:53.943Z,71.00
2023-05-17T17:53:22.128Z,71.40
2023-05-17T17:55:49.220Z,71.10
2023-05-17T17:58:16.274Z,70.20
2023-05-17T18:00:43.387Z,70.50
2023-05-17T18:03:10.857Z,71.80
2023-05-17T18:05:38.432Z,72.20
2023-05-17T18:08:10.053Z,72.60
2023-05-17T18:10:37.119Z,71.40
2023-05-17T18:13:04.951Z,71.30
2023-05-17T18:15:32.100Z,71.60
2023-05-17T18:17:59.248Z,71.80
2023-05-17T18:20:26.525Z,72.50
2023-05-17T18:22:54.151Z,72.90
2023-05-17T18:25:21.756Z,73.60
2023-05-17T18:27:48.823Z,73.50
2023-05-17T18:30:16.977Z,74.40
2023-05-17T18:32:44.347Z,75.90
2023-05-17T18:35:11.547Z,76.10
2023-05-17T18:37:38.591Z,76.00
2023-05-17T18:40:06.683Z,75.80
2023-05-17T18:42:39.412Z,75.40
2023-05-17T18:45:07.560Z,75.10
2023-05-17T18:47:34.740Z,74.70
2023-05-17T18:50:01.888Z,74.10
2023-05-17T18:52:28.991Z,74.30
2023-05-17T18:54:55.961Z,74.50
2023-05-17T18:57:23.021Z,74.40
2023-05-17T18:59:50.031Z,74.40
2023-05-17T19:02:16.979Z,73.90
2023-05-17T19:04:44.310Z,74.00
2023-05-17T19:07:11.350Z,73.90
2023-05-17T19:09:38.921Z,73.80
2023-05-17T19:12:06.625Z,73.20
2023-05-17T19:14:33.696Z,72.20
2023-05-17T19:17:00.888Z,72.50
2023-05-17T19:19:27.948Z,73.10
2023-05-17T19:21:54.986Z,73.80
2023-05-17T19:24:22.013Z,74.80
2023-05-17T19:26:49.051Z,75.70
2023-05-17T19:29:16.079Z,76.10
2023-05-17T19:31:43.188Z,76.50
2023-05-17T19:34:10.571Z,76.80
2023-05-17T19:36:37.769Z,77.20
2023-05-17T19:39:04.859Z,77.30
2023-05-17T19:41:31.925Z,77.60
2023-05-17T19:43:59.023Z,77.40
2023-05-17T19:46:26.139Z,77.60
2023-05-17T19:48:53.284Z,77.50
2023-05-17T19:51:20.318Z,77.40
2023-05-17T19:53:53.424Z,77.40
2023-05-17T19:56:23.449Z,77.70
2023-05-17T19:58:52.297Z,78.10
2023-05-17T20:01:19.464Z,78.70
2023-05-17T20:03:46.728Z,79.10
2023-05-17T20:06:15.153Z,79.60
2023-05-17T20:08:42.557Z,79.90
2023-05-17T20:11:09.761Z,80.10
2023-05-17T20:13:40.487Z,80.30
2023-05-17T20:16:14.571Z,80.40
2023-05-17T20:18:45.667Z,80.60
2023-05-17T20:21:18.221Z,80.40
2023-05-17T20:23:45.805Z,80.20
2023-05-17T20:27:04.050Z,80.10
2023-05-17T20:29:31.147Z,80.10
2023-05-17T20:31:59.199Z,80.60
2023-05-17T20:34:28.623Z,80.70
2023-05-17T20:36:57.009Z,80.80
2023-05-17T20:40:39.255Z,80.90
2023-05-17T20:43:59.320Z,80.70
2023-05-17T20:46:29.939Z,81.40
2023-05-17T20:48:58.175Z,81.40
2023-05-17T20:51:27.119Z,81.00
2023-05-17T20:53:54.593Z,81.10
2023-05-17T20:56:21.807Z,81.50
2023-05-17T20:58:49.292Z,81.60
2023-05-17T21:01:16.409Z,81.40
2023-05-17T21:03:43.942Z,80.70
2023-05-17T21:06:11.186Z,80.90
2023-05-17T21:08:38.623Z,80.90
2023-05-17T21:11:05.769Z,81.00
2023-05-17T21:17:45.930Z,80.70
2023-05-17T21:20:13.869Z,81.10
2023-05-17T21:22:40.923Z,81.80
2023-05-17T21:25:37.953Z,82.00
2023-05-17T21:28:06.148Z,82.00
2023-05-17T21:30:33.303Z,82.10
2023-05-17T21:33:00.485Z,82.00
2023-05-17T21:35:27.592Z,82.00
2023-05-17T21:37:54.669Z,82.40
2023-05-17T21:40:21.764Z,82.60
2023-05-17T21:43:00.020Z,82.80
2023-05-17T21:45:27.401Z,82.60
2023-05-17T21:47:55.600Z,83.20
2023-05-17T21:50:22.942Z,83.30
2023-05-17T21:53:44.726Z,83.60
2023-05-17T21:56:12.234Z,84.60
2023-05-17T21:58:39.403Z,84.90
2023-05-17T22:01:07.052Z,85.30
2023-05-17T22:03:34.941Z,85.80
2023-05-17T22:06:02.081Z,85.90
2023-05-17T22:08:29.202Z,86.10
2023-05-17T22:10:57.174Z,86.00
2023-05-17T22:13:26.966Z,85.60
2023-05-17T22:15:57.453Z,85.40
2023-05-17T22:18:27.024Z,86.50
2023-05-17T22:20:55.202Z,86.40
2023-05-17T22:23:22.304Z,86.90
2023-05-17T22:25:49.296Z,87.00
2023-05-17T22:28:16.361Z,87.30
2023-05-17T22:30:45.161Z,87.50
2023-05-17T22:33:12.297Z,87.60
2023-05-17T22:35:41.200Z,87.40
2023-05-17T22:38:08.269Z,87.40
2023-05-17T22:40:35.350Z,87.40
2023-05-17T22:43:02.420Z,87.50
2023-05-17T22:45:33.416Z,87.50
2023-05-17T22:48:03.115Z,87.30
2023-05-17T22:50:33.816Z,87.80
2023-05-17T22:53:01.513Z,87.90
2023-05-17T22:55:31.480Z,87.70
2023-05-17T22:57:59.618Z,87.60
2023-05-17T23:00:27.201Z,87.80
2023-05-17T23:02:54.454Z,88.10
2023-05-17T23:05:22.349Z,88.70
2023-05-17T23:07:49.527Z,89.70
2023-05-17T23:10:16.664Z,89.80
2023-05-17T23:12:43.819Z,89.90
2023-05-17T23:15:12.868Z,89.80
2023-05-17T23:17:41.476Z,89.70
2023-05-17T23:20:10.275Z,89.60
2023-05-17T23:22:39.100Z,89.60
2023-05-17T23:25:08.458Z,89.80
2023-05-17T23:27:36.768Z,90.20
2023-05-17T23:30:05.027Z,91.00
2023-05-17T23:32:34.297Z,91.60
2023-05-17T23:35:05.522Z,92.20
2023-05-17T23:37:33.880Z,92.90
2023-05-17T23:40:02.017Z,93.70
2023-05-17T23:42:29.720Z,94.50
2023-05-17T23:44:56.989Z,94.90
2023-05-17T23:47:24.619Z,95.00
2023-05-17T23:49:52.946Z,95.20
2023-05-17T23:52:20.237Z,95.50
2023-05-17T23:54:47.893Z,95.70
2023-05-17T23:57:15.153Z,95.60
2023-05-17T23:59:43.444Z,95.50
